OIBS  Sirri Island  Airport

Iran

Add Bookmark
ICAO OIBS
IATA SXI
Type Airport
Status Operational
Latitude
25° 54' 32" N
25.908899
Longitude
54° 32' 21" E
54.539398
Local (GMT +4.5 ) UTC
May 3, 2016 01:53 am May 2, 2016 21:23
Sunrise-Sunset Local UTC
Begin Civil Twilight 05:47 am 01:17
Sunrise 06:11 am 01:41
Sunset 07:25 pm 14:55
End Civil Twilight 07:50 pm 15:20
VFR
VFR
MVFR
MVFR
IFR
IFR
LIFR
LIFR
Unknown
Unavailable

Current Weather

METAR Observed VFR
OIBS 021500Z 26012KT CAVOK 27/22 Q1006 Mon, May 2, 2016 @ 15:00 UTC
(6 Hours, 23 Minutes ago)
Visual Flight Rules
Wind Visibility Conditions
260° at 12 knots (22 kph) 10 km or more
  • No significant weather
Temperatures Readings Precipitation
Current Temp
27°C
81°F
Dewpoint
22°C
72°F
Heat Index
29°C
85°
Humidity 74%
Altimeter 29.7" Hg
Sea Level Pressure 1,006 mb
Field Elevation
14 m
46 ft
None Recorded

Additional weather within a 92.6km radius of OIBS

Map ICAO Location
OIBA 49.4km E (094°)
OIBL 74.8km N/NE (022°)
OIBK 88.5km NW (321°)
VFR
VFR
MVFR
MVFR
IFR
IFR
LIFR
LIFR
Unknown
Unavailable
-
-

CheckWX.com is intended as a tool to help pilots better visualize weather data. It is not intended as a substitute for an official weather briefing obtained from a Flight Service Station. CheckWX.com does not meet the FAA requirements for an official pre-flight weather briefing. Therefore, it's important that pilots still call and obtain an official FSS pre-flight weather briefing.

© 2007-2016 CheckWX.com
21:23:19 UTC